Station History

Weather Underground - logo

Station Historical Data
Daily Summary for November 26, 2017 Units:  English    Metric   Both
« Previous Day
Next Day »
Daily Weekly Monthly Yearly Custom
  High: Low: Average:
Temperature: TemperatureF °F 48.1 °F 63.9 °F
Dew Point: DewpointF °F 46.2 °F 51.1 °F
Humidity: Humidity % 29 % 67 %
Wind Speed: WindSpeedMPH mph 0.0 mph 0.4 mph
Wind Gust: WindSpeedGustMPH mph - -
Wind:- - SSW
Pressure: PressureIn in 29.87 in -
Precipitation: 0.00 in    
Historical Graphs
 
 
Tabular Data for November 26, 2017
Time Temperature Dew Point Pressure Wind Wind Speed Wind Gust Humidity Rainfall Rate (Hourly)
TemperatureF °F DewpointF °F PressureIn in Calm     Humidity % HourlyPrecipIn in
00:00 52.3 °F 50.0 °F 30.04 in Calm     92 % 0.00 in
00:05 52.1 °F 49.8 °F 30.03 in Calm     92 % 0.00 in
00:10 52.1 °F 50.1 °F 30.03 in Calm     93 % 0.00 in
00:15 52.0 °F 49.7 °F 30.04 in Calm     92 % 0.00 in
00:20 51.7 °F 49.5 °F 30.03 in Calm     92 % 0.00 in
00:25 51.6 °F 49.4 °F 30.03 in Calm     92 % 0.00 in
00:30 51.7 °F 49.7 °F 30.03 in Calm     93 % 0.00 in
00:35 52.0 °F 50.0 °F 30.03 in Calm     93 % 0.00 in
00:40 52.1 °F 50.1 °F 30.02 in Calm     93 % 0.00 in
00:45 52.0 °F 50.0 °F 30.02 in Calm     93 % 0.00 in
00:50 52.2 °F 50.2 °F 30.02 in Calm     93 % 0.00 in
00:55 52.5 °F 50.8 °F 30.02 in Calm     94 % 0.00 in
01:00 52.8 °F 50.8 °F 30.03 in Calm     93 % 0.00 in
01:05 52.9 °F 50.9 °F 30.02 in Calm     93 % 0.00 in
01:10 53.1 °F 51.1 °F 30.02 in Calm     93 % 0.00 in
01:15 53.2 °F 51.2 °F 30.02 in Calm     93 % 0.00 in
01:20 53.2 °F 51.2 °F 30.02 in Calm     93 % 0.00 in
01:25 53.3 °F 51.3 °F 30.02 in Calm     93 % 0.00 in
01:30 53.3 °F 51.0 °F 30.02 in Calm     92 % 0.00 in
01:35 53.2 °F 50.9 °F 30.02 in Calm     92 % 0.00 in
01:40 53.1 °F 50.8 °F 30.02 in Calm     92 % 0.00 in
01:45 53.2 °F 51.2 °F 30.02 in Calm     93 % 0.00 in
01:50 52.4 °F 49.8 °F 30.02 in Calm     91 % 0.00 in
01:56 52.2 °F 49.9 °F 30.02 in Calm   0.1 mph 92 % 0.00 in
02:00 52.0 °F 49.7 °F 30.02 in West 1.2 mph   92 % 0.00 in
02:06 52.0 °F 49.7 °F 30.02 in Calm     92 % 0.00 in
02:11 52.1 °F 49.8 °F 30.02 in Calm     92 % 0.00 in
02:16 52.0 °F 49.7 °F 30.02 in Calm     92 % 0.00 in
02:21 52.0 °F 49.7 °F 30.02 in Calm     92 % 0.00 in
02:26 51.7 °F 49.2 °F 30.01 in Calm     91 % 0.00 in
02:31 51.5 °F 49.0 °F 30.01 in Calm     91 % 0.00 in
02:36 51.3 °F 49.1 °F 30.01 in Calm     92 % 0.00 in
02:46 51.3 °F 49.1 °F 30.01 in Calm     92 % 0.00 in
02:51 51.2 °F 49.0 °F 30.01 in Calm     92 % 0.00 in
02:56 51.1 °F 48.9 °F 30.01 in Calm     92 % 0.00 in
03:01 51.0 °F 48.8 °F 30.01 in Calm     92 % 0.00 in
03:06 51.5 °F 49.3 °F 30.01 in Calm     92 % 0.00 in
03:11 51.9 °F 49.6 °F 30.01 in Calm     92 % 0.00 in
03:16 52.2 °F 49.7 °F 30.01 in Calm     91 % 0.00 in
03:21 52.5 °F 49.9 °F 30.01 in Calm     91 % 0.00 in
03:26 52.4 °F 49.3 °F 30.00 in Calm     89 % 0.00 in
03:31 52.0 °F 49.2 °F 30.01 in Calm     90 % 0.00 in
03:36 51.7 °F 48.9 °F 30.01 in Calm     90 % 0.00 in
03:41 51.4 °F 48.6 °F 30.01 in Calm     90 % 0.00 in
03:46 51.1 °F 48.6 °F 30.01 in Calm     91 % 0.00 in
03:51 50.9 °F 48.4 °F 30.01 in Calm     91 % 0.00 in
03:52 50.8 °F 48.3 °F 30.01 in Calm     91 % 0.00 in
03:57 51.1 °F 48.9 °F 30.01 in Calm     92 % 0.00 in
04:02 51.3 °F 49.1 °F 30.00 in Calm     92 % 0.00 in
04:07 51.3 °F 48.8 °F 30.01 in Calm     91 % 0.00 in
04:12 51.3 °F 48.8 °F 30.00 in Calm     91 % 0.00 in
04:17 51.3 °F 49.1 °F 30.00 in Calm     92 % 0.00 in
04:22 51.3 °F 48.8 °F 30.00 in Calm     91 % 0.00 in
04:27 51.2 °F 48.7 °F 30.00 in Calm     91 % 0.00 in
04:32 51.1 °F 48.6 °F 30.01 in Calm     91 % 0.00 in
04:37 50.9 °F 48.4 °F 30.01 in Calm     91 % 0.00 in
04:42 50.7 °F 48.2 °F 30.01 in Calm     91 % 0.00 in
04:47 50.6 °F 48.1 °F 30.01 in Calm     91 % 0.00 in
04:52 50.6 °F 48.4 °F 30.01 in Calm     92 % 0.00 in
04:57 50.4 °F 48.2 °F 30.01 in Calm     92 % 0.00 in
05:02 50.4 °F 48.2 °F 30.01 in Calm     92 % 0.00 in
05:07 50.5 °F 48.6 °F 30.01 in Calm     93 % 0.00 in
05:12 50.8 °F 48.8 °F 30.01 in Calm     93 % 0.00 in
05:17 50.6 °F 48.1 °F 30.01 in Calm     91 % 0.00 in
05:22 50.1 °F 47.6 °F 30.01 in Calm     91 % 0.00 in
05:27 49.8 °F 47.3 °F 30.01 in Calm     91 % 0.00 in
05:32 49.6 °F 47.4 °F 30.01 in Calm     92 % 0.00 in
05:37 49.3 °F 47.1 °F 30.02 in Calm     92 % 0.00 in
05:42 49.0 °F 46.8 °F 30.02 in Calm     92 % 0.00 in
05:47 48.7 °F 46.5 °F 30.02 in Calm     92 % 0.00 in
05:52 48.5 °F 46.3 °F 30.02 in Calm     92 % 0.00 in
05:57 48.3 °F 46.4 °F 30.02 in Calm     93 % 0.00 in
06:02 48.2 °F 46.3 °F 30.02 in Calm     93 % 0.00 in
06:07 48.1 °F 46.2 °F 30.03 in Calm     93 % 0.00 in
06:12 48.1 °F 46.5 °F 30.03 in Calm     94 % 0.00 in
06:17 48.3 °F 46.7 °F 30.03 in Calm     94 % 0.00 in
06:22 48.5 °F 46.9 °F 30.03 in Calm     94 % 0.00 in
06:27 48.7 °F 47.1 °F 30.03 in Calm     94 % 0.00 in
06:32 48.8 °F 46.9 °F 30.03 in Calm     93 % 0.00 in
06:37 48.7 °F 46.8 °F 30.04 in Calm     93 % 0.00 in
06:42 48.4 °F 46.5 °F 30.04 in Calm     93 % 0.00 in
06:47 48.2 °F 46.3 °F 30.04 in Calm     93 % 0.00 in
06:53 48.2 °F 46.6 °F 30.04 in Calm     94 % 0.00 in
06:58 48.2 °F 46.6 °F 30.04 in Calm     94 % 0.00 in
07:03 48.1 °F 46.5 °F 30.05 in Calm     94 % 0.00 in
07:08 48.2 °F 46.6 °F 30.05 in Calm     94 % 0.00 in
07:13 48.6 °F 47.2 °F 30.05 in Calm     95 % 0.00 in
07:18 49.4 °F 48.0 °F 30.05 in NNE 1.2 mph   95 % 0.00 in
07:23 50.1 °F 48.4 °F 30.05 in Calm     94 % 0.00 in
07:28 50.9 °F 48.7 °F 30.06 in NNE 1.2 mph 1.2 mph 92 % 0.00 in
07:33 51.9 °F 49.1 °F 30.06 in NNE 1.2 mph 1.2 mph 90 % 0.00 in
07:38 52.8 °F 49.3 °F 30.06 in East 1.2 mph 1.2 mph 88 % 0.00 in
07:43 54.1 °F 49.7 °F 30.05 in East 1.2 mph 1.2 mph 85 % 0.00 in
07:48 55.5 °F 50.1 °F 30.06 in ESE 1.2 mph 1.2 mph 82 % 0.00 in
07:53 56.6 °F 50.5 °F 30.05 in Calm     80 % 0.00 in
07:58 57.5 °F 51.0 °F 30.06 in ESE 1.2 mph   79 % 0.00 in
08:03 58.4 °F 51.2 °F 30.05 in ESE 1.2 mph 1.2 mph 77 % 0.00 in
08:08 58.6 °F 51.4 °F 30.06 in Calm     77 % 0.00 in
08:13 59.0 °F 51.8 °F 30.06 in Calm     77 % 0.00 in
08:18 59.6 °F 52.0 °F 30.06 in Calm     76 % 0.00 in
08:23 60.1 °F 52.1 °F 30.06 in Calm     75 % 0.00 in
08:28 60.6 °F 52.6 °F 30.06 in Calm     75 % 0.00 in
08:33 61.5 °F 52.8 °F 30.06 in Calm     73 % 0.00 in
08:38 61.9 °F 53.9 °F 30.06 in Calm     75 % 0.00 in
08:43 62.1 °F 54.1 °F 30.06 in Calm     75 % 0.00 in
08:48 62.4 °F 54.0 °F 30.06 in Calm     74 % 0.00 in
08:53 62.5 °F 54.8 °F 30.06 in Calm     76 % 0.00 in
08:58 62.8 °F 55.5 °F 30.06 in Calm     77 % 0.00 in
09:03 63.4 °F 55.3 °F 30.06 in Calm     75 % 0.00 in
09:08 63.8 °F 55.0 °F 30.06 in Calm     73 % 0.00 in
09:13 64.2 °F 55.0 °F 30.06 in Calm     72 % 0.00 in
09:18 64.6 °F 55.7 °F 30.06 in Calm     73 % 0.00 in
09:23 64.9 °F 55.7 °F 30.06 in Calm     72 % 0.00 in
09:28 65.2 °F 55.6 °F 30.06 in Calm     71 % 0.00 in
09:33 65.5 °F 55.8 °F 30.06 in Calm     71 % 0.00 in
09:43 66.3 °F 56.2 °F 30.06 in Calm     70 % 0.00 in
09:48 66.9 °F 56.8 °F 30.06 in Calm     70 % 0.00 in
09:53 67.9 °F 57.4 °F 30.06 in Calm     69 % 0.00 in
09:58 68.9 °F 56.6 °F 30.05 in Calm     65 % 0.00 in
10:03 70.1 °F 57.4 °F 30.05 in Calm     64 % 0.00 in
10:08 71.0 °F 57.3 °F 30.05 in Calm     62 % 0.00 in
10:13 71.7 °F 56.6 °F 30.05 in Calm     59 % 0.00 in
10:18 72.4 °F 57.3 °F 30.05 in Calm     59 % 0.00 in
10:23 72.9 °F 56.8 °F 30.05 in Calm     57 % 0.00 in
10:28 73.2 °F 56.6 °F 30.05 in Calm     56 % 0.00 in
10:33 73.4 °F 56.7 °F 30.05 in Calm     56 % 0.00 in
10:38 73.6 °F 56.9 °F 30.04 in Calm     56 % 0.00 in
10:43 73.8 °F 57.1 °F 30.04 in Calm     56 % 0.00 in
10:48 74.1 °F 56.9 °F 30.04 in Calm     55 % 0.00 in
10:53 74.3 °F 57.6 °F 30.04 in Calm     56 % 0.00 in
10:58 74.5 °F 56.8 °F 30.03 in Calm     54 % 0.00 in
11:03 74.8 °F 57.5 °F 30.03 in Calm     55 % 0.00 in
11:06 74.9 °F 56.6 °F 30.03 in Calm     53 % 0.00 in
11:11 75.1 °F 56.3 °F 30.03 in Calm     52 % 0.00 in
11:16 75.2 °F 55.8 °F 30.02 in Calm     51 % 0.00 in
11:21 75.7 °F 57.9 °F 30.02 in Calm     54 % 0.00 in
11:26 76.5 °F 57.0 °F 30.02 in Calm     51 % 0.00 in
11:31 77.0 °F 55.8 °F 30.01 in Calm     48 % 0.00 in
11:36 77.4 °F 56.2 °F 30.01 in Calm     48 % 0.00 in
11:41 77.8 °F 55.4 °F 30.01 in Calm     46 % 0.00 in
11:46 78.5 °F 54.1 °F 30.01 in West 1.2 mph 1.2 mph 43 % 0.00 in
11:51 78.9 °F 53.2 °F 30.00 in West 1.2 mph   41 % 0.00 in
11:56 79.0 °F 53.3 °F 30.00 in Calm     41 % 0.00 in
12:01 79.3 °F 52.2 °F 30.00 in Calm   0.1 mph 39 % 0.00 in
12:06 79.7 °F 51.8 °F 29.99 in WNW 1.2 mph 1.2 mph 38 % 0.00 in
12:11 80.2 °F 52.3 °F 29.99 in Calm     38 % 0.00 in
12:16 80.6 °F 51.9 °F 29.99 in Calm     37 % 0.00 in
12:21 81.0 °F 52.3 °F 29.98 in Calm     37 % 0.00 in
12:26 81.6 °F 52.8 °F 29.98 in NW 1.2 mph 1.2 mph 37 % 0.00 in
12:31 81.9 °F 52.3 °F 29.97 in Calm     36 % 0.00 in
12:36 82.5 °F 51.3 °F 29.97 in ESE 1.2 mph 1.2 mph 34 % 0.00 in
12:41 83.0 °F 51.7 °F 29.97 in NW 2.3 mph   34 % 0.00 in
12:46 83.0 °F 50.9 °F 29.97 in Calm     33 % 0.00 in
12:51 83.0 °F 50.9 °F 29.96 in Calm     33 % 0.00 in
12:56 83.0 °F 50.1 °F 29.96 in NW 1.2 mph 1.2 mph 32 % 0.00 in
13:01 82.7 °F 49.8 °F 29.95 in Calm     32 % 0.00 in
13:06 82.5 °F 48.8 °F 29.95 in Calm     31 % 0.00 in
13:11 82.6 °F 49.7 °F 29.95 in Calm     32 % 0.00 in
13:16 82.7 °F 49.8 °F 29.95 in NW 1.2 mph   32 % 0.00 in
13:21 82.6 °F 48.0 °F 29.94 in NW 1.2 mph 1.2 mph 30 % 0.00 in
13:26 82.5 °F 48.8 °F 29.94 in West 1.2 mph   31 % 0.00 in
13:31 82.3 °F 49.5 °F 29.94 in West 1.2 mph   32 % 0.00 in
13:36 82.1 °F 48.5 °F 29.93 in Calm   0.1 mph 31 % 0.00 in
13:41 82.4 °F 46.9 °F 29.93 in Calm     29 % 0.00 in
13:46 82.7 °F 47.2 °F 29.93 in WSW 1.2 mph 1.2 mph 29 % 0.00 in
13:51 82.8 °F 47.3 °F 29.93 in Calm     29 % 0.00 in
13:56 82.6 °F 48.0 °F 29.92 in West 1.2 mph 1.2 mph 30 % 0.00 in
14:01 82.2 °F 49.4 °F 29.92 in NW 2.3 mph 2.3 mph 32 % 0.00 in
14:06 82.0 °F 49.2 °F 29.92 in NW 2.3 mph 2.3 mph 32 % 0.00 in
14:11 81.7 °F 49.0 °F 29.92 in NW 2.3 mph 2.3 mph 32 % 0.00 in
14:16 81.3 °F 49.4 °F 29.92 in NW 1.2 mph 1.4 mph 33 % 0.00 in
14:21 81.2 °F 50.2 °F 29.92 in NW 2.3 mph 2.3 mph 34 % 0.00 in
14:26 81.2 °F 50.2 °F 29.92 in NW 3.5 mph 3.5 mph 34 % 0.00 in
14:27 81.2 °F 49.4 °F 29.92 in NW 2.0 mph 2.0 mph 33 % 0.00 in
14:32 80.7 °F 49.7 °F 29.92 in NW 2.3 mph 2.3 mph 34 % 0.00 in
14:37 80.3 °F 49.4 °F 29.91 in WNW 2.3 mph 2.3 mph 34 % 0.00 in
14:42 80.1 °F 51.5 °F 29.91 in Calm     37 % 0.00 in
14:47 80.1 °F 51.5 °F 29.91 in NNE 1.2 mph 1.2 mph 37 % 0.00 in
14:52 80.3 °F 50.1 °F 29.92 in NW 2.3 mph 2.3 mph 35 % 0.00 in
14:57 80.3 °F 50.9 °F 29.92 in NW 1.2 mph 1.2 mph 36 % 0.00 in
15:02 79.8 °F 51.9 °F 29.92 in WNW 1.2 mph 1.2 mph 38 % 0.00 in
15:07 79.2 °F 50.7 °F 29.92 in Calm     37 % 0.00 in
15:17 78.5 °F 51.5 °F 29.92 in Calm     39 % 0.00 in
15:22 78.1 °F 50.4 °F 29.92 in Calm     38 % 0.00 in
15:27 77.8 °F 50.9 °F 29.92 in Calm     39 % 0.00 in
15:32 77.5 °F 50.6 °F 29.92 in Calm     39 % 0.00 in
15:37 77.3 °F 50.4 °F 29.92 in Calm     39 % 0.00 in
15:42 77.1 °F 50.2 °F 29.92 in Calm     39 % 0.00 in
15:47 76.8 °F 52.0 °F 29.92 in Calm     42 % 0.00 in
15:52 76.3 °F 50.9 °F 29.92 in Calm     41 % 0.00 in
15:57 75.9 °F 53.0 °F 29.92 in Calm     45 % 0.00 in
16:02 75.3 °F 50.6 °F 29.92 in Calm     42 % 0.00 in
16:07 74.7 °F 50.7 °F 29.91 in Calm     43 % 0.00 in
16:12 74.3 °F 50.4 °F 29.91 in Calm     43 % 0.00 in
16:22 73.5 °F 50.9 °F 29.90 in Calm     45 % 0.00 in
16:27 73.0 °F 51.6 °F 29.90 in Calm     47 % 0.00 in
16:32 72.6 °F 53.4 °F 29.90 in Calm     51 % 0.00 in
16:37 72.1 °F 53.0 °F 29.90 in Calm     51 % 0.00 in
16:42 71.4 °F 52.9 °F 29.90 in Calm     52 % 0.00 in
16:47 70.6 °F 54.1 °F 29.90 in Calm     56 % 0.00 in
16:52 69.6 °F 54.2 °F 29.90 in Calm     58 % 0.00 in
16:57 68.9 °F 54.0 °F 29.90 in Calm     59 % 0.00 in
17:03 68.7 °F 53.3 °F 29.90 in Calm     58 % 0.00 in
17:08 68.6 °F 53.7 °F 29.91 in Calm     59 % 0.00 in
17:13 68.0 °F 54.0 °F 29.91 in Calm     61 % 0.00 in
17:18 67.7 °F 52.9 °F 29.91 in Calm     59 % 0.00 in
17:23 67.6 °F 54.1 °F 29.91 in Calm     62 % 0.00 in
17:28 67.1 °F 54.1 °F 29.91 in Calm     63 % 0.00 in
17:33 66.6 °F 53.6 °F 29.91 in Calm     63 % 0.00 in
17:38 66.3 °F 53.8 °F 29.91 in Calm     64 % 0.00 in
17:43 66.0 °F 54.3 °F 29.91 in Calm     66 % 0.00 in
17:48 65.7 °F 53.6 °F 29.91 in Calm     65 % 0.00 in
17:53 65.6 °F 52.7 °F 29.90 in Calm     63 % 0.00 in
17:58 65.7 °F 52.8 °F 29.90 in Calm     63 % 0.00 in
18:03 65.7 °F 52.3 °F 29.90 in Calm     62 % 0.00 in
18:08 65.6 °F 53.5 °F 29.91 in Calm     65 % 0.00 in
18:13 65.4 °F 53.7 °F 29.91 in Calm     66 % 0.00 in
18:18 65.0 °F 52.9 °F 29.90 in Calm     65 % 0.00 in
18:23 64.7 °F 53.1 °F 29.91 in Calm     66 % 0.00 in
18:28 64.5 °F 53.3 °F 29.91 in Calm     67 % 0.00 in
18:33 64.3 °F 53.1 °F 29.92 in Calm     67 % 0.00 in
18:38 64.2 °F 52.6 °F 29.92 in Calm     66 % 0.00 in
18:43 64.1 °F 52.5 °F 29.91 in Calm     66 % 0.00 in
18:48 64.1 °F 52.1 °F 29.92 in Calm     65 % 0.00 in
18:53 64.3 °F 51.9 °F 29.91 in Calm     64 % 0.00 in
18:58 64.8 °F 52.3 °F 29.92 in Calm     64 % 0.00 in
19:03 65.0 °F 52.1 °F 29.91 in Calm     63 % 0.00 in
19:08 65.5 °F 52.6 °F 29.91 in Calm     63 % 0.00 in
19:13 65.7 °F 52.3 °F 29.91 in Calm     62 % 0.00 in
19:18 65.8 °F 52.4 °F 29.92 in Calm     62 % 0.00 in
19:19 65.8 °F 52.9 °F 29.92 in Calm     63 % 0.00 in
19:23 65.7 °F 52.8 °F 29.92 in Calm     63 % 0.00 in
19:28 65.6 °F 53.1 °F 29.92 in Calm     64 % 0.00 in
19:33 65.3 °F 53.2 °F 29.92 in Calm     65 % 0.00 in
19:38 65.2 °F 53.1 °F 29.92 in Calm     65 % 0.00 in
19:43 65.3 °F 52.4 °F 29.92 in Calm     63 % 0.00 in
19:48 65.5 °F 52.1 °F 29.90 in ENE 3.5 mph 3.5 mph 62 % 0.00 in
19:53 65.7 °F 52.3 °F 29.91 in ESE 1.2 mph   62 % 0.00 in
19:54 65.7 °F 52.3 °F 29.91 in Calm     62 % 0.00 in
19:59 65.6 °F 51.3 °F 29.91 in ENE 2.3 mph 2.3 mph 60 % 0.00 in
20:04 66.0 °F 51.3 °F 29.91 in Calm     59 % 0.00 in
20:09 66.1 °F 50.9 °F 29.91 in Calm     58 % 0.00 in
20:14 66.1 °F 50.9 °F 29.91 in Calm     58 % 0.00 in
20:19 66.1 °F 50.9 °F 29.91 in Calm     58 % 0.00 in
20:24 66.0 °F 51.3 °F 29.91 in ESE 1.2 mph 1.2 mph 59 % 0.00 in
20:29 66.0 °F 50.8 °F 29.89 in SE 1.2 mph 1.2 mph 58 % 0.00 in
20:34 66.1 °F 49.9 °F 29.88 in East 2.3 mph 2.3 mph 56 % 0.00 in
20:39 66.4 °F 50.2 °F 29.87 in East 2.0 mph   56 % 0.00 in
20:44 66.6 °F 49.4 °F 29.87 in ESE 3.5 mph 3.5 mph 54 % 0.00 in
20:49 67.2 °F 49.5 °F 29.89 in Calm     53 % 0.00 in
20:54 67.2 °F 50.0 °F 29.89 in Calm     54 % 0.00 in
20:59 66.9 °F 50.2 °F 29.90 in Calm     55 % 0.00 in
21:04 66.5 °F 50.8 °F 29.91 in Calm     57 % 0.00 in
21:09 66.2 °F 50.0 °F 29.91 in NW 2.3 mph 2.3 mph 56 % 0.00 in
21:14 66.4 °F 50.7 °F 29.92 in NW 2.3 mph 2.3 mph 57 % 0.00 in
21:19 66.4 °F 50.2 °F 29.92 in North 2.3 mph 2.3 mph 56 % 0.00 in
21:24 66.3 °F 50.6 °F 29.93 in NE 2.3 mph 2.3 mph 57 % 0.00 in
21:29 66.2 °F 50.5 °F 29.93 in NNW 1.2 mph 1.2 mph 57 % 0.00 in
21:34 66.0 °F 50.8 °F 29.93 in NW 1.2 mph 1.2 mph 58 % 0.00 in
21:39 65.8 °F 51.1 °F 29.93 in NNW 1.2 mph   59 % 0.00 in
21:44 65.7 °F 51.4 °F 29.94 in West 1.2 mph 1.2 mph 60 % 0.00 in
21:49 65.6 °F 50.9 °F 29.93 in WNW 2.3 mph 2.3 mph 59 % 0.00 in
21:54 65.7 °F 51.0 °F 29.94 in NW 2.3 mph 2.3 mph 59 % 0.00 in
21:59 65.6 °F 50.9 °F 29.95 in NNW 3.5 mph 3.5 mph 59 % 0.00 in
22:04 65.6 °F 51.3 °F 29.95 in NNW 1.2 mph   60 % 0.00 in
22:09 65.3 °F 51.1 °F 29.94 in SSE 1.2 mph   60 % 0.00 in
22:14 65.1 °F 51.3 °F 29.93 in SSE 1.2 mph   61 % 0.00 in
22:20 64.9 °F 52.0 °F 29.94 in Calm     63 % 0.00 in
22:25 64.6 °F 53.0 °F 29.94 in SE 2.3 mph 2.3 mph 66 % 0.00 in
22:30 64.0 °F 53.2 °F 29.95 in SE 2.3 mph 2.3 mph 68 % 0.00 in
22:35 63.5 °F 53.1 °F 29.96 in ESE 1.0 mph   69 % 0.00 in
22:40 63.1 °F 52.8 °F 29.96 in SE 1.2 mph 1.2 mph 69 % 0.00 in
22:45 63.0 °F 53.1 °F 29.96 in ESE 1.2 mph 1.2 mph 70 % 0.00 in
22:50 63.0 °F 53.1 °F 29.96 in SE 2.3 mph   70 % 0.00 in
22:55 63.1 °F 52.8 °F 29.96 in NE 1.2 mph 1.2 mph 69 % 0.00 in
23:00 63.5 °F 53.1 °F 29.97 in ESE 1.2 mph 1.2 mph 69 % 0.00 in
23:05 63.6 °F 52.8 °F 29.97 in ESE 2.3 mph 2.3 mph 68 % 0.00 in
23:10 63.9 °F 53.1 °F 29.95 in ESE 3.5 mph 3.5 mph 68 % 0.00 in
23:15 64.0 °F 53.2 °F 29.95 in East 1.2 mph 1.2 mph 68 % 0.00 in
23:20 64.1 °F 53.7 °F 29.94 in East 3.0 mph 3.0 mph 69 % 0.00 in
23:25 64.2 °F 53.8 °F 29.95 in SE 2.3 mph 2.3 mph 69 % 0.00 in
23:30 64.2 °F 53.8 °F 29.95 in Calm   0.3 mph 69 % 0.00 in
23:35 64.3 °F 53.5 °F 29.93 in SE 1.2 mph 1.2 mph 68 % 0.00 in
23:40 64.4 °F 54.0 °F 29.94 in Calm     69 % 0.00 in
23:45 64.1 °F 53.7 °F 29.94 in SSW 1.2 mph   69 % 0.00 in
23:50 63.9 °F 53.9 °F 29.95 in Calm     70 % 0.00 in
23:55 63.6 °F 53.6 °F 29.94 in SSE 1.2 mph   70 % 0.00 in
Park Place, Exeter, Tulare County, California, USA
Compliments of Weather Underground - 2.75 mb